createdAt,value
2023-02-11T00:02:55.080Z,67.96
2023-02-11T00:12:58.791Z,68.07
2023-02-11T00:23:03.574Z,68.42
2023-02-11T00:33:07.538Z,68.70
2023-02-11T00:43:13.843Z,68.75
2023-02-11T00:53:17.518Z,68.73
2023-02-11T01:03:22.841Z,68.56
2023-02-11T01:13:27.971Z,68.31
2023-02-11T01:23:31.699Z,67.97
2023-02-11T01:33:36.820Z,67.72
2023-02-11T01:43:46.577Z,67.65
2023-02-11T01:54:10.183Z,67.30
2023-02-11T02:04:20.321Z,67.23
2023-02-11T02:14:23.953Z,67.15
2023-02-11T02:25:07.870Z,67.04
2023-02-11T02:35:26.710Z,66.97
2023-02-11T02:45:34.943Z,67.07
2023-02-11T02:55:52.223Z,67.32
2023-02-11T03:06:09.299Z,67.05
2023-02-11T03:16:23.201Z,67.03
2023-02-11T03:26:35.310Z,66.91
2023-02-11T03:36:53.158Z,66.87
2023-02-11T03:46:57.000Z,66.89
2023-02-11T03:57:02.980Z,67.70
2023-02-11T04:07:08.306Z,67.93
2023-02-11T04:17:13.482Z,68.46
2023-02-11T04:27:17.241Z,68.79
2023-02-11T04:37:20.883Z,68.93
2023-02-11T04:47:24.512Z,68.88
2023-02-11T04:57:30.232Z,69.01
2023-02-11T05:07:34.108Z,69.36
2023-02-11T05:17:37.813Z,69.85
2023-02-11T05:27:43.352Z,70.27
2023-02-11T05:37:47.040Z,70.96
2023-02-11T05:47:50.687Z,71.46
2023-02-11T05:57:54.269Z,72.10
2023-02-11T06:07:58.158Z,72.37
2023-02-11T06:18:01.759Z,72.58
2023-02-11T06:28:07.864Z,72.80
2023-02-11T06:38:13.000Z,73.12
2023-02-11T06:48:16.685Z,73.32
2023-02-11T06:58:23.165Z,73.15
2023-02-11T07:08:26.911Z,73.24
2023-02-11T07:18:30.652Z,73.48
2023-02-11T07:28:35.801Z,73.35
2023-02-11T07:38:41.443Z,73.44
2023-02-11T07:48:45.162Z,73.33
2023-02-11T07:58:49.719Z,73.21
2023-02-11T08:08:56.268Z,73.22
2023-02-11T08:19:04.029Z,73.59
2023-02-11T08:29:12.551Z,73.76
2023-02-11T08:39:20.827Z,73.98
2023-02-11T08:49:25.893Z,74.01
2023-02-11T08:59:29.747Z,73.89
2023-02-11T09:09:35.585Z,73.82
2023-02-11T09:19:39.136Z,73.48
2023-02-11T09:29:44.314Z,72.91
2023-02-11T09:39:48.071Z,72.48
2023-02-11T09:50:14.885Z,72.07
2023-02-11T10:00:20.641Z,71.65
2023-02-11T10:10:36.227Z,71.37
2023-02-11T10:20:51.304Z,71.08
2023-02-11T10:30:58.625Z,71.43
2023-02-11T10:41:02.481Z,71.25
2023-02-11T10:51:12.794Z,71.32
2023-02-11T11:01:24.202Z,71.15
2023-02-11T11:11:28.331Z,71.30
2023-02-11T11:21:44.065Z,71.42
2023-02-11T11:32:05.587Z,71.40
2023-02-11T11:42:26.650Z,71.67
2023-02-11T11:52:46.697Z,71.79
2023-02-11T12:03:12.033Z,71.99
2023-02-11T12:13:29.873Z,71.89
2023-02-11T12:23:52.307Z,72.27
2023-02-11T12:34:18.304Z,72.48
2023-02-11T12:44:31.111Z,72.76
2023-02-11T12:54:49.536Z,72.79
2023-02-11T13:05:05.734Z,72.32
2023-02-11T13:15:15.982Z,72.63
2023-02-11T13:25:31.880Z,72.76
2023-02-11T13:35:36.931Z,72.87
2023-02-11T13:45:45.667Z,73.19
2023-02-11T13:56:05.211Z,73.52
2023-02-11T14:06:27.821Z,73.69
2023-02-11T14:16:38.484Z,74.08
2023-02-11T14:26:53.576Z,74.32
2023-02-11T14:37:29.091Z,74.51
2023-02-11T14:47:43.320Z,74.29
2023-02-11T14:57:49.826Z,73.88
2023-02-11T15:08:05.344Z,74.18
2023-02-11T15:18:23.082Z,73.93
2023-02-11T15:28:31.276Z,73.81
2023-02-11T15:38:35.138Z,74.19
2023-02-11T15:48:45.102Z,74.32
2023-02-11T15:58:50.282Z,73.72
2023-02-11T16:09:08.453Z,73.49
2023-02-11T16:19:19.670Z,73.25
2023-02-11T16:29:26.612Z,72.93
2023-02-11T16:39:33.316Z,72.85
2023-02-11T16:49:41.230Z,72.12
2023-02-11T16:59:46.191Z,70.97
2023-02-11T17:09:50.071Z,71.06
2023-02-11T17:19:55.728Z,71.55
2023-02-11T17:30:01.070Z,71.75
2023-02-11T17:40:05.911Z,71.73
2023-02-11T17:50:11.944Z,71.43
2023-02-11T18:00:16.012Z,71.01
2023-02-11T18:10:23.019Z,70.65
2023-02-11T18:20:26.859Z,70.61
2023-02-11T18:30:30.789Z,69.85
2023-02-11T18:40:40.993Z,69.03
2023-02-11T18:50:47.772Z,69.43
2023-02-11T19:00:53.443Z,70.11
2023-02-11T19:10:57.414Z,70.84
2023-02-11T19:21:13.073Z,71.15
2023-02-11T19:31:16.866Z,71.32
2023-02-11T19:41:23.555Z,71.13
2023-02-11T19:51:31.523Z,70.45
2023-02-11T20:01:37.829Z,70.13
2023-02-11T20:11:42.818Z,69.17
2023-02-11T20:21:53.600Z,68.22
2023-02-11T20:31:58.946Z,67.33
2023-02-11T20:42:04.118Z,67.84
2023-02-11T20:52:08.594Z,68.21
2023-02-11T21:02:13.757Z,68.89
2023-02-11T21:12:17.394Z,68.54
2023-02-11T21:22:21.206Z,68.65
2023-02-11T21:32:25.994Z,68.64
2023-02-11T21:42:29.689Z,68.10
2023-02-11T21:52:35.153Z,68.09
2023-02-11T22:02:40.224Z,67.45
2023-02-11T22:12:44.049Z,67.18
2023-02-11T22:22:49.367Z,66.95
2023-02-11T22:32:53.076Z,66.18
2023-02-11T22:42:56.761Z,66.17
2023-02-11T22:53:00.492Z,66.85
2023-02-11T23:03:04.738Z,66.66
2023-02-11T23:13:10.678Z,65.94
2023-02-11T23:23:16.342Z,65.86
2023-02-11T23:33:20.004Z,66.11
2023-02-11T23:43:24.887Z,66.04
2023-02-11T23:53:28.697Z,66.09
